sensor_id;sensor_type;location;lat;lon;timestamp;pressure;altitude;pressure_sealevel;temperature;humidity
7376;BME280;3728;42.266;24.944;2023-03-16T00:02:10;98463.91;;;9.58;78.81
7376;BME280;3728;42.266;24.944;2023-03-16T00:04:38;98463.75;;;9.55;78.74
7376;BME280;3728;42.266;24.944;2023-03-16T00:07:08;98457.50;;;9.68;78.53
7376;BME280;3728;42.266;24.944;2023-03-16T00:09:37;98455.47;;;9.53;78.88
7376;BME280;3728;42.266;24.944;2023-03-16T00:12:16;98466.53;;;9.58;78.02
7376;BME280;3728;42.266;24.944;2023-03-16T00:14:45;98469.63;;;9.52;78.27
7376;BME280;3728;42.266;24.944;2023-03-16T00:17:17;98471.66;;;9.46;79.37
7376;BME280;3728;42.266;24.944;2023-03-16T00:19:51;98470.19;;;9.37;79.22
7376;BME280;3728;42.266;24.944;2023-03-16T00:22:25;98470.38;;;9.52;79.33
7376;BME280;3728;42.266;24.944;2023-03-16T00:24:55;98461.47;;;9.74;78.00
7376;BME280;3728;42.266;24.944;2023-03-16T00:27:24;98470.66;;;10.01;76.51
7376;BME280;3728;42.266;24.944;2023-03-16T00:29:52;98466.56;;;10.12;76.17
7376;BME280;3728;42.266;24.944;2023-03-16T00:32:26;98462.63;;;9.85;77.26
7376;BME280;3728;42.266;24.944;2023-03-16T00:34:56;98461.47;;;9.74;77.47
7376;BME280;3728;42.266;24.944;2023-03-16T00:37:25;98464.69;;;9.92;77.45
7376;BME280;3728;42.266;24.944;2023-03-16T00:39:54;98465.75;;;9.79;77.10
7376;BME280;3728;42.266;24.944;2023-03-16T00:42:24;98470.16;;;9.87;77.23
7376;BME280;3728;42.266;24.944;2023-03-16T00:44:54;98466.19;;;9.81;77.18
7376;BME280;3728;42.266;24.944;2023-03-16T00:47:24;98475.63;;;9.73;77.74
7376;BME280;3728;42.266;24.944;2023-03-16T00:49:54;98476.66;;;9.60;78.16
7376;BME280;3728;42.266;24.944;2023-03-16T00:52:23;98477.22;;;9.86;77.63
7376;BME280;3728;42.266;24.944;2023-03-16T00:54:53;98476.66;;;9.60;77.83
7376;BME280;3728;42.266;24.944;2023-03-16T00:57:23;98481.44;;;9.58;78.17
7376;BME280;3728;42.266;24.944;2023-03-16T00:59:54;98484.38;;;9.77;76.81
7376;BME280;3728;42.266;24.944;2023-03-16T01:02:21;98485.88;;;9.78;77.08
7376;BME280;3728;42.266;24.944;2023-03-16T01:04:51;98478.50;;;9.80;76.72
7376;BME280;3728;42.266;24.944;2023-03-16T01:07:20;98490.31;;;9.86;77.21
7376;BME280;3728;42.266;24.944;2023-03-16T01:09:49;98490.22;;;10.15;75.71
7376;BME280;3728;42.266;24.944;2023-03-16T01:12:18;98480.72;;;9.90;76.23
7376;BME280;3728;42.266;24.944;2023-03-16T01:14:46;98495.09;;;9.84;76.97
7376;BME280;3728;42.266;24.944;2023-03-16T01:17:15;98496.16;;;9.83;77.08
7376;BME280;3728;42.266;24.944;2023-03-16T01:19:44;98495.59;;;9.98;76.24
7376;BME280;3728;42.266;24.944;2023-03-16T01:22:12;98496.41;;;9.90;76.67
7376;BME280;3728;42.266;24.944;2023-03-16T01:24:41;98499.72;;;9.79;77.86
7376;BME280;3728;42.266;24.944;2023-03-16T01:27:13;98507.06;;;9.85;77.96
7376;BME280;3728;42.266;24.944;2023-03-16T01:29:40;98505.03;;;9.91;78.28
7376;BME280;3728;42.266;24.944;2023-03-16T01:32:09;98509.13;;;10.00;77.62
7376;BME280;3728;42.266;24.944;2023-03-16T01:34:37;98509.94;;;10.13;76.00
7376;BME280;3728;42.266;24.944;2023-03-16T01:37:05;98514.53;;;10.16;75.95
7376;BME280;3728;42.266;24.944;2023-03-16T01:39:39;98510.97;;;10.20;76.92
7376;BME280;3728;42.266;24.944;2023-03-16T01:42:08;98515.75;;;10.51;76.62
7376;BME280;3728;42.266;24.944;2023-03-16T01:44:54;98522.59;;;10.44;78.41
7376;BME280;3728;42.266;24.944;2023-03-16T01:47:35;98517.97;;;10.28;79.72
7376;BME280;3728;42.266;24.944;2023-03-16T01:50:10;98512.06;;;10.19;80.59
7376;BME280;3728;42.266;24.944;2023-03-16T01:52:39;98511.97;;;10.07;80.86
7376;BME280;3728;42.266;24.944;2023-03-16T01:55:09;98518.03;;;9.99;81.19
7376;BME280;3728;42.266;24.944;2023-03-16T01:57:44;98519.75;;;9.95;81.29
7376;BME280;3728;42.266;24.944;2023-03-16T02:00:16;98516.56;;;9.90;81.96
7376;BME280;3728;42.266;24.944;2023-03-16T02:03:10;98517.06;;;10.04;81.13
7376;BME280;3728;42.266;24.944;2023-03-16T02:08:46;98517.59;;;10.18;80.24
7376;BME280;3728;42.266;24.944;2023-03-16T02:11:16;98522.00;;;10.26;80.55
7376;BME280;3728;42.266;24.944;2023-03-16T02:13:53;98522.53;;;10.19;80.86
7376;BME280;3728;42.266;24.944;2023-03-16T02:16:25;98534.66;;;10.24;81.19
7376;BME280;3728;42.266;24.944;2023-03-16T02:18:52;98531.88;;;10.20;81.35
7376;BME280;3728;42.266;24.944;2023-03-16T02:21:33;98533.81;;;10.11;81.64
7376;BME280;3728;42.266;24.944;2023-03-16T02:24:25;98539.84;;;10.03;82.48
7376;BME280;3728;42.266;24.944;2023-03-16T02:26:56;98541.81;;;10.15;81.69
7376;BME280;3728;42.266;24.944;2023-03-16T02:29:53;98542.56;;;10.36;81.18
7376;BME280;3728;42.266;24.944;2023-03-16T02:32:25;98540.03;;;10.72;78.06
7376;BME280;3728;42.266;24.944;2023-03-16T02:34:57;98545.88;;;11.50;75.25
7376;BME280;3728;42.266;24.944;2023-03-16T02:37:25;98553.75;;;11.14;77.01
7376;BME280;3728;42.266;24.944;2023-03-16T02:39:53;98555.19;;;10.67;78.20
7376;BME280;3728;42.266;24.944;2023-03-16T02:42:22;98546.88;;;10.65;77.43
7376;BME280;3728;42.266;24.944;2023-03-16T02:44:56;98554.25;;;10.51;78.80
7376;BME280;3728;42.266;24.944;2023-03-16T02:47:36;98546.88;;;10.65;76.56
7376;BME280;3728;42.266;24.944;2023-03-16T02:50:08;98549.19;;;10.34;77.46
7376;BME280;3728;42.266;24.944;2023-03-16T02:52:37;98551.97;;;9.87;79.51
7376;BME280;3728;42.266;24.944;2023-03-16T02:55:09;98552.72;;;9.88;78.39
7376;BME280;3728;42.266;24.944;2023-03-16T02:57:37;98561.88;;;10.02;77.05
7376;BME280;3728;42.266;24.944;2023-03-16T03:00:10;98563.00;;;9.93;77.56
7376;BME280;3728;42.266;24.944;2023-03-16T03:02:44;98565.97;;;9.62;78.00
7376;BME280;3728;42.266;24.944;2023-03-16T03:05:15;98562.53;;;9.41;78.73
7376;BME280;3728;42.266;24.944;2023-03-16T03:07:43;98567.00;;;9.40;78.79
7376;BME280;3728;42.266;24.944;2023-03-16T03:10:11;98577.75;;;9.68;77.73
7376;BME280;3728;42.266;24.944;2023-03-16T03:12:39;98579.47;;;9.35;78.15
7376;BME280;3728;42.266;24.944;2023-03-16T03:15:09;98582.00;;;9.52;77.25
7376;BME280;3728;42.266;24.944;2023-03-16T03:17:48;98586.50;;;9.43;77.83
7376;BME280;3728;42.266;24.944;2023-03-16T03:20:16;98588.97;;;9.77;76.66
7376;BME280;3728;42.266;24.944;2023-03-16T03:22:47;98594.25;;;9.60;76.28
7376;BME280;3728;42.266;24.944;2023-03-16T03:25:16;98600.06;;;9.36;77.39
7376;BME280;3728;42.266;24.944;2023-03-16T03:27:45;98601.22;;;9.56;76.95
7376;BME280;3728;42.266;24.944;2023-03-16T03:30:19;98609.00;;;9.64;76.15
7376;BME280;3728;42.266;24.944;2023-03-16T03:32:50;98605.50;;;9.52;76.32
7376;BME280;3728;42.266;24.944;2023-03-16T03:35:20;98596.50;;;9.41;76.56
7376;BME280;3728;42.266;24.944;2023-03-16T03:37:49;98609.28;;;9.34;76.65
7376;BME280;3728;42.266;24.944;2023-03-16T03:40:18;98602.22;;;9.26;77.72
7376;BME280;3728;42.266;24.944;2023-03-16T03:42:50;98604.56;;;9.19;77.12
7376;BME280;3728;42.266;24.944;2023-03-16T03:45:18;98611.94;;;9.17;76.88
7376;BME280;3728;42.266;24.944;2023-03-16T03:47:46;98611.09;;;9.04;77.82
7376;BME280;3728;42.266;24.944;2023-03-16T03:50:17;98612.78;;;8.91;77.67
7376;BME280;3728;42.266;24.944;2023-03-16T03:53:08;98616.66;;;8.85;78.21
7376;BME280;3728;42.266;24.944;2023-03-16T03:55:52;98616.16;;;8.83;78.11
7376;BME280;3728;42.266;24.944;2023-03-16T03:58:20;98615.13;;;8.76;78.38
7376;BME280;3728;42.266;24.944;2023-03-16T04:00:47;98622.66;;;8.60;79.24
7376;BME280;3728;42.266;24.944;2023-03-16T04:03:15;98620.34;;;8.67;78.41
7376;BME280;3728;42.266;24.944;2023-03-16T04:05:44;98620.03;;;8.69;77.86
7376;BME280;3728;42.266;24.944;2023-03-16T04:08:11;98628.47;;;8.49;79.27
7376;BME280;3728;42.266;24.944;2023-03-16T04:10:39;98625.56;;;8.50;78.72
7376;BME280;3728;42.266;24.944;2023-03-16T04:13:06;98630.31;;;8.48;79.21
7376;BME280;3728;42.266;24.944;2023-03-16T04:15:34;98637.53;;;8.34;79.73
7376;BME280;3728;42.266;24.944;2023-03-16T04:18:17;98639.53;;;8.37;79.42
7376;BME280;3728;42.266;24.944;2023-03-16T04:20:45;98642.44;;;8.36;78.95
7376;BME280;3728;42.266;24.944;2023-03-16T04:23:16;98637.09;;;8.41;79.56
7376;BME280;3728;42.266;24.944;2023-03-16T04:25:48;98644.91;;;8.49;78.92
7376;BME280;3728;42.266;24.944;2023-03-16T04:28:17;98647.06;;;8.47;79.16
7376;BME280;3728;42.266;24.944;2023-03-16T04:30:49;98644.59;;;8.34;79.24
7376;BME280;3728;42.266;24.944;2023-03-16T04:33:34;98647.81;;;8.31;79.01
7376;BME280;3728;42.266;24.944;2023-03-16T04:36:05;98649.75;;;8.25;80.12
7376;BME280;3728;42.266;24.944;2023-03-16T04:38:35;98656.56;;;8.26;79.47
7376;BME280;3728;42.266;24.944;2023-03-16T04:41:04;98653.88;;;8.00;80.80
7376;BME280;3728;42.266;24.944;2023-03-16T04:43:36;98653.56;;;7.93;80.72
7376;BME280;3728;42.266;24.944;2023-03-16T04:46:17;98660.13;;;7.91;80.88
7376;BME280;3728;42.266;24.944;2023-03-16T04:48:45;98667.91;;;7.74;81.12
7376;BME280;3728;42.266;24.944;2023-03-16T04:51:13;98673.19;;;7.99;80.82
7376;BME280;3728;42.266;24.944;2023-03-16T04:53:49;98673.16;;;7.91;80.16
7376;BME280;3728;42.266;24.944;2023-03-16T04:56:23;98674.34;;;7.85;80.93
7376;BME280;3728;42.266;24.944;2023-03-16T04:58:55;98683.75;;;7.94;80.61
7376;BME280;3728;42.266;24.944;2023-03-16T05:01:27;98693.81;;;7.79;80.93
7376;BME280;3728;42.266;24.944;2023-03-16T05:03:57;98692.22;;;8.08;78.94
7376;BME280;3728;42.266;24.944;2023-03-16T05:06:26;98688.50;;;8.01;79.36
7376;BME280;3728;42.266;24.944;2023-03-16T05:08:58;98706.94;;;7.96;79.37
7376;BME280;3728;42.266;24.944;2023-03-16T05:11:27;98701.97;;;7.86;79.08
7376;BME280;3728;42.266;24.944;2023-03-16T05:13:58;98709.78;;;7.77;79.85
7376;BME280;3728;42.266;24.944;2023-03-16T05:16:25;98709.28;;;7.75;79.61
7376;BME280;3728;42.266;24.944;2023-03-16T05:18:57;98711.97;;;7.62;80.55
7376;BME280;3728;42.266;24.944;2023-03-16T05:21:27;98724.84;;;7.58;80.40
7376;BME280;3728;42.266;24.944;2023-03-16T05:24:05;98717.94;;;7.53;80.08
7376;BME280;3728;42.266;24.944;2023-03-16T05:26:34;98722.59;;;7.65;78.98
7376;BME280;3728;42.266;24.944;2023-03-16T05:29:03;98731.22;;;7.74;79.70
7376;BME280;3728;42.266;24.944;2023-03-16T05:31:31;98728.72;;;7.69;78.84
7376;BME280;3728;42.266;24.944;2023-03-16T05:34:01;98741.38;;;7.53;79.19
7376;BME280;3728;42.266;24.944;2023-03-16T05:36:30;98731.78;;;7.40;79.64
7376;BME280;3728;42.266;24.944;2023-03-16T05:39:04;98733.91;;;7.61;78.49
7376;BME280;3728;42.266;24.944;2023-03-16T05:41:37;98739.38;;;7.50;78.62
7376;BME280;3728;42.266;24.944;2023-03-16T05:44:15;98739.19;;;7.47;78.45
7376;BME280;3728;42.266;24.944;2023-03-16T05:47:01;98743.03;;;7.49;79.03
7376;BME280;3728;42.266;24.944;2023-03-16T05:49:31;98749.81;;;7.59;77.98
7376;BME280;3728;42.266;24.944;2023-03-16T05:52:02;98757.69;;;7.68;77.23
7376;BME280;3728;42.266;24.944;2023-03-16T05:54:31;98756.47;;;7.65;77.48
7376;BME280;3728;42.266;24.944;2023-03-16T05:56:59;98764.44;;;7.69;76.92
7376;BME280;3728;42.266;24.944;2023-03-16T05:59:27;98767.28;;;7.58;76.78
7376;BME280;3728;42.266;24.944;2023-03-16T06:01:56;98763.81;;;7.41;77.47
7376;BME280;3728;42.266;24.944;2023-03-16T06:04:24;98765.34;;;7.64;76.85
7376;BME280;3728;42.266;24.944;2023-03-16T06:06:52;98771.44;;;7.59;76.07
7376;BME280;3728;42.266;24.944;2023-03-16T06:09:24;98773.81;;;7.47;76.77
7376;BME280;3728;42.266;24.944;2023-03-16T06:11:53;98776.31;;;7.52;76.99
7376;BME280;3728;42.266;24.944;2023-03-16T06:14:20;98783.94;;;7.49;77.06
7376;BME280;3728;42.266;24.944;2023-03-16T06:16:51;98787.78;;;7.51;76.81
7376;BME280;3728;42.266;24.944;2023-03-16T06:19:19;98804.53;;;7.59;76.69
7376;BME280;3728;42.266;24.944;2023-03-16T06:21:52;98807.22;;;7.68;75.92
7376;BME280;3728;42.266;24.944;2023-03-16T06:24:19;98798.44;;;7.64;76.35
7376;BME280;3728;42.266;24.944;2023-03-16T06:26:47;98809.50;;;7.69;75.49
7376;BME280;3728;42.266;24.944;2023-03-16T06:29:15;98815.66;;;7.73;74.94
7376;BME280;3728;42.266;24.944;2023-03-16T06:31:43;98808.50;;;7.56;75.43
7376;BME280;3728;42.266;24.944;2023-03-16T06:34:11;98807.03;;;7.64;75.15
7376;BME280;3728;42.266;24.944;2023-03-16T06:36:39;98819.03;;;7.74;74.83
7376;BME280;3728;42.266;24.944;2023-03-16T06:39:10;98816.44;;;7.51;75.68
7376;BME280;3728;42.266;24.944;2023-03-16T06:41:41;98819.63;;;7.71;74.23
7376;BME280;3728;42.266;24.944;2023-03-16T06:44:12;98823.78;;;7.49;74.76
7376;BME280;3728;42.266;24.944;2023-03-16T06:46:50;98829.34;;;7.56;74.79
7376;BME280;3728;42.266;24.944;2023-03-16T06:49:17;98828.28;;;7.57;74.52
7376;BME280;3728;42.266;24.944;2023-03-16T06:51:45;98843.34;;;7.61;74.01
7376;BME280;3728;42.266;24.944;2023-03-16T06:54:13;98837.03;;;7.62;73.33
7376;BME280;3728;42.266;24.944;2023-03-16T06:56:41;98843.97;;;7.66;73.70
7376;BME280;3728;42.266;24.944;2023-03-16T06:59:11;98845.63;;;7.62;73.17
7376;BME280;3728;42.266;24.944;2023-03-16T07:01:39;98861.16;;;7.67;73.64
7376;BME280;3728;42.266;24.944;2023-03-16T07:04:07;98852.22;;;7.82;72.26
7376;BME280;3728;42.266;24.944;2023-03-16T07:06:38;98867.72;;;7.87;72.14
7376;BME280;3728;42.266;24.944;2023-03-16T07:09:06;98868.22;;;7.89;71.25
7376;BME280;3728;42.266;24.944;2023-03-16T07:11:34;98873.22;;;7.85;72.31
7376;BME280;3728;42.266;24.944;2023-03-16T07:14:01;98883.19;;;8.05;70.68
7376;BME280;3728;42.266;24.944;2023-03-16T07:16:31;98875.59;;;7.73;71.15
7376;BME280;3728;42.266;24.944;2023-03-16T07:19:01;98887.28;;;7.76;71.85
7376;BME280;3728;42.266;24.944;2023-03-16T07:21:30;98881.66;;;7.60;72.78
7376;BME280;3728;42.266;24.944;2023-03-16T07:24:08;98889.59;;;7.77;70.99
7376;BME280;3728;42.266;24.944;2023-03-16T07:26:40;98892.47;;;7.76;71.49
7376;BME280;3728;42.266;24.944;2023-03-16T07:29:12;98893.56;;;7.75;70.43
7376;BME280;3728;42.266;24.944;2023-03-16T07:31:40;98888.88;;;7.85;70.36
7376;BME280;3728;42.266;24.944;2023-03-16T07:34:13;98901.31;;;7.88;70.76
7376;BME280;3728;42.266;24.944;2023-03-16T07:36:46;98892.66;;;8.01;69.76
7376;BME280;3728;42.266;24.944;2023-03-16T07:39:15;98900.22;;;7.89;70.17
7376;BME280;3728;42.266;24.944;2023-03-16T07:41:44;98911.22;;;8.00;70.51
7376;BME280;3728;42.266;24.944;2023-03-16T07:44:14;98911.22;;;8.00;70.53
7376;BME280;3728;42.266;24.944;2023-03-16T07:46:46;98914.88;;;7.99;70.10
7376;BME280;3728;42.266;24.944;2023-03-16T07:49:14;98910.59;;;8.25;68.59
7376;BME280;3728;42.266;24.944;2023-03-16T07:51:43;98907.13;;;8.07;69.76
7376;BME280;3728;42.266;24.944;2023-03-16T07:54:11;98917.25;;;8.09;70.02
7376;BME280;3728;42.266;24.944;2023-03-16T07:56:39;98920.03;;;8.12;68.95
7376;BME280;3728;42.266;24.944;2023-03-16T07:59:24;98914.22;;;8.15;69.65
7376;BME280;3728;42.266;24.944;2023-03-16T08:01:52;98921.84;;;8.34;68.29
7376;BME280;3728;42.266;24.944;2023-03-16T08:04:20;98930.00;;;8.33;68.11
7376;BME280;3728;42.266;24.944;2023-03-16T08:06:53;98929.63;;;8.25;68.33
7376;BME280;3728;42.266;24.944;2023-03-16T08:09:32;98930.50;;;8.43;67.95
7376;BME280;3728;42.266;24.944;2023-03-16T08:12:05;98930.97;;;8.23;68.09
7376;BME280;3728;42.266;24.944;2023-03-16T08:14:34;98930.84;;;8.50;67.40
7376;BME280;3728;42.266;24.944;2023-03-16T08:17:10;98939.00;;;8.57;67.68
7376;BME280;3728;42.266;24.944;2023-03-16T08:19:42;98945.78;;;8.58;68.86
7376;BME280;3728;42.266;24.944;2023-03-16T08:22:09;98939.22;;;8.69;67.41
7376;BME280;3728;42.266;24.944;2023-03-16T08:24:41;98944.19;;;8.79;67.51
7376;BME280;3728;42.266;24.944;2023-03-16T08:27:10;98949.59;;;8.83;66.38
7376;BME280;3728;42.266;24.944;2023-03-16T08:29:42;98953.91;;;8.87;66.57
7376;BME280;3728;42.266;24.944;2023-03-16T08:32:14;98951.56;;;9.25;65.45
7376;BME280;3728;42.266;24.944;2023-03-16T08:34:42;98956.28;;;9.15;65.46
7376;BME280;3728;42.266;24.944;2023-03-16T08:37:14;98953.81;;;9.10;67.34
7376;BME280;3728;42.266;24.944;2023-03-16T08:39:44;98964.75;;;9.20;65.71
7376;BME280;3728;42.266;24.944;2023-03-16T08:42:14;98965.72;;;9.41;65.00
7376;BME280;3728;42.266;24.944;2023-03-16T08:44:47;98959.88;;;9.44;65.06
7376;BME280;3728;42.266;24.944;2023-03-16T08:47:17;98957.91;;;9.67;65.43
7376;BME280;3728;42.266;24.944;2023-03-16T08:49:45;98955.28;;;9.93;63.69
7376;BME280;3728;42.266;24.944;2023-03-16T08:52:14;98957.91;;;10.01;62.41
7376;BME280;3728;42.266;24.944;2023-03-16T08:54:42;98966.19;;;10.38;62.39
7376;BME280;3728;42.266;24.944;2023-03-16T08:57:27;98975.28;;;10.40;61.48
7376;BME280;3728;42.266;24.944;2023-03-16T08:59:55;98955.88;;;10.32;60.51
7376;BME280;3728;42.266;24.944;2023-03-16T09:02:22;98963.22;;;10.56;60.54
7376;BME280;3728;42.266;24.944;2023-03-16T09:04:51;98960.47;;;10.53;60.29
7376;BME280;3728;42.266;24.944;2023-03-16T09:07:19;98966.00;;;10.51;59.76
7376;BME280;3728;42.266;24.944;2023-03-16T09:09:46;98966.63;;;10.48;60.72
7376;BME280;3728;42.266;24.944;2023-03-16T09:12:14;98965.44;;;10.46;59.40
7376;BME280;3728;42.266;24.944;2023-03-16T09:14:41;98965.41;;;10.54;59.07
7376;BME280;3728;42.266;24.944;2023-03-16T09:17:09;98971.41;;;10.55;59.52
7376;BME280;3728;42.266;24.944;2023-03-16T09:19:37;98968.72;;;10.72;58.24
7376;BME280;3728;42.266;24.944;2023-03-16T09:22:18;98969.78;;;10.79;58.51
7376;BME280;3728;42.266;24.944;2023-03-16T09:24:47;98966.81;;;10.89;59.19
7376;BME280;3728;42.266;24.944;2023-03-16T09:27:17;98971.59;;;11.17;57.89
7376;BME280;3728;42.266;24.944;2023-03-16T09:29:46;98965.72;;;10.90;56.79
7376;BME280;3728;42.266;24.944;2023-03-16T09:32:16;98961.91;;;10.88;57.53
7376;BME280;3728;42.266;24.944;2023-03-16T09:34:44;98965.75;;;10.82;57.50
7376;BME280;3728;42.266;24.944;2023-03-16T09:37:11;98968.47;;;10.94;56.68
7376;BME280;3728;42.266;24.944;2023-03-16T09:39:39;98975.28;;;10.86;58.36
7376;BME280;3728;42.266;24.944;2023-03-16T09:42:23;98974.91;;;11.05;57.70
7376;BME280;3728;42.266;24.944;2023-03-16T09:45:05;98973.50;;;11.08;58.04
7376;BME280;3728;42.266;24.944;2023-03-16T09:47:45;98964.75;;;11.33;57.03
7376;BME280;3728;42.266;24.944;2023-03-16T09:50:24;98975.81;;;11.59;55.01
7376;BME280;3728;42.266;24.944;2023-03-16T09:56:13;98973.34;;;11.62;55.24
7376;BME280;3728;42.266;24.944;2023-03-16T09:58:46;98964.06;;;11.65;54.89
7376;BME280;3728;42.266;24.944;2023-03-16T10:07:03;98975.56;;;11.81;54.66
7376;BME280;3728;42.266;24.944;2023-03-16T10:09:43;98971.94;;;12.06;52.83
7376;BME280;3728;42.266;24.944;2023-03-16T10:12:21;98970.56;;;11.88;53.28
7376;BME280;3728;42.266;24.944;2023-03-16T10:15:05;98985.50;;;11.67;53.78
7376;BME280;3728;42.266;24.944;2023-03-16T10:20:30;98973.28;;;12.12;51.82
7376;BME280;3728;42.266;24.944;2023-03-16T10:23:07;98990.56;;;12.46;52.05
7376;BME280;3728;42.266;24.944;2023-03-16T10:25:47;98982.94;;;12.20;51.61
7376;BME280;3728;42.266;24.944;2023-03-16T10:28:22;98973.91;;;12.42;52.36
7376;BME280;3728;42.266;24.944;2023-03-16T10:30:55;98987.25;;;12.82;51.04
7376;BME280;3728;42.266;24.944;2023-03-16T10:33:32;98988.88;;;12.86;50.83
7376;BME280;3728;42.266;24.944;2023-03-16T10:43:53;98986.91;;;12.95;49.83
7376;BME280;3728;42.266;24.944;2023-03-16T10:46:25;98977.94;;;12.84;49.96
7376;BME280;3728;42.266;24.944;2023-03-16T10:48:56;98983.84;;;12.93;49.75
7376;BME280;3728;42.266;24.944;2023-03-16T10:51:32;98984.41;;;12.87;50.04
7376;BME280;3728;42.266;24.944;2023-03-16T10:54:12;98986.25;;;12.74;50.09
7376;BME280;3728;42.266;24.944;2023-03-16T10:56:43;98979.34;;;12.70;48.80
7376;BME280;3728;42.266;24.944;2023-03-16T11:02:14;98974.69;;;12.99;49.93
7376;BME280;3728;42.266;24.944;2023-03-16T11:04:43;98970.72;;;12.93;49.47
7376;BME280;3728;42.266;24.944;2023-03-16T11:07:20;98968.97;;;12.97;48.89
7376;BME280;3728;42.266;24.944;2023-03-16T11:09:51;98973.34;;;12.93;49.49
7376;BME280;3728;42.266;24.944;2023-03-16T11:12:24;98968.13;;;13.18;48.55
7376;BME280;3728;42.266;24.944;2023-03-16T11:15:04;98966.56;;;12.92;48.61
7376;BME280;3728;42.266;24.944;2023-03-16T11:17:51;98963.38;;;12.99;48.74
7376;BME280;3728;42.266;24.944;2023-03-16T11:20:26;98964.84;;;13.21;48.52
7376;BME280;3728;42.266;24.944;2023-03-16T11:22:54;98962.66;;;13.11;48.24
7376;BME280;3728;42.266;24.944;2023-03-16T11:25:44;98965.28;;;13.11;47.84
7376;BME280;3728;42.266;24.944;2023-03-16T11:31:50;98965.50;;;13.18;48.10
7376;BME280;3728;42.266;24.944;2023-03-16T11:34:40;98958.91;;;13.24;48.78
7376;BME280;3728;42.266;24.944;2023-03-16T11:37:28;98963.09;;;13.13;48.52
7376;BME280;3728;42.266;24.944;2023-03-16T11:40:32;98960.97;;;12.94;47.46
7376;BME280;3728;42.266;24.944;2023-03-16T11:43:29;98964.81;;;12.96;48.53
7376;BME280;3728;42.266;24.944;2023-03-16T11:46:36;98958.03;;;13.08;48.95
7376;BME280;3728;42.266;24.944;2023-03-16T12:08:26;98967.91;;;13.11;48.74
7376;BME280;3728;42.266;24.944;2023-03-16T12:11:13;98963.00;;;13.21;48.36
7376;BME280;3728;42.266;24.944;2023-03-16T12:17:17;98968.13;;;13.06;49.21
7376;BME280;3728;42.266;24.944;2023-03-16T12:20:11;98975.38;;;13.09;48.83
7376;BME280;3728;42.266;24.944;2023-03-16T12:22:48;98970.69;;;12.81;49.27
7376;BME280;3728;42.266;24.944;2023-03-16T12:25:43;98970.25;;;12.55;48.89
7376;BME280;3728;42.266;24.944;2023-03-16T12:28:23;98973.09;;;12.62;48.63
7376;BME280;3728;42.266;24.944;2023-03-16T12:33:33;98979.84;;;12.51;49.28
7376;BME280;3728;42.266;24.944;2023-03-16T12:42:36;98979.66;;;12.23;51.12
7376;BME280;3728;42.266;24.944;2023-03-16T12:48:42;98987.88;;;12.55;50.72
7376;BME280;3728;42.266;24.944;2023-03-16T12:51:11;98994.81;;;12.83;49.08
7376;BME280;3728;42.266;24.944;2023-03-16T12:53:52;99002.03;;;12.42;49.08
7376;BME280;3728;42.266;24.944;2023-03-16T12:56:31;99006.88;;;12.52;49.76
7376;BME280;3728;42.266;24.944;2023-03-16T12:59:02;99007.47;;;12.24;49.75
7376;BME280;3728;42.266;24.944;2023-03-16T13:01:42;99004.00;;;12.12;50.52
7376;BME280;3728;42.266;24.944;2023-03-16T13:04:20;99001.88;;;12.26;50.03
7376;BME280;3728;42.266;24.944;2023-03-16T13:07:21;99012.09;;;12.07;50.70
7376;BME280;3728;42.266;24.944;2023-03-16T13:10:09;99005.47;;;12.21;49.83
7376;BME280;3728;42.266;24.944;2023-03-16T13:12:40;99005.41;;;12.30;50.48
7376;BME280;3728;42.266;24.944;2023-03-16T13:17:48;99017.72;;;12.17;51.04
7376;BME280;3728;42.266;24.944;2023-03-16T13:20:33;99021.09;;;12.18;51.01
7376;BME280;3728;42.266;24.944;2023-03-16T13:25:57;99027.63;;;12.12;50.72
7376;BME280;3728;42.266;24.944;2023-03-16T13:28:50;99035.56;;;12.24;50.73
7376;BME280;3728;42.266;24.944;2023-03-16T13:31:26;99031.34;;;12.11;50.86
7376;BME280;3728;42.266;24.944;2023-03-16T13:34:02;99047.97;;;12.35;50.52
7376;BME280;3728;42.266;24.944;2023-03-16T13:36:32;99044.22;;;12.04;51.15
7376;BME280;3728;42.266;24.944;2023-03-16T13:39:20;99040.63;;;11.88;51.75
7376;BME280;3728;42.266;24.944;2023-03-16T13:44:55;99044.91;;;11.92;50.80
7376;BME280;3728;42.266;24.944;2023-03-16T13:47:25;99047.41;;;11.89;51.31
7376;BME280;3728;42.266;24.944;2023-03-16T13:49:57;99042.88;;;11.77;51.82
7376;BME280;3728;42.266;24.944;2023-03-16T13:52:28;99050.59;;;11.94;51.41
7376;BME280;3728;42.266;24.944;2023-03-16T13:54:58;99063.25;;;12.01;51.77
7376;BME280;3728;42.266;24.944;2023-03-16T13:57:31;99067.56;;;11.76;52.27
7376;BME280;3728;42.266;24.944;2023-03-16T14:00:18;99064.25;;;11.88;51.81
7376;BME280;3728;42.266;24.944;2023-03-16T14:02:53;99057.44;;;11.57;52.09
7376;BME280;3728;42.266;24.944;2023-03-16T14:05:31;99063.97;;;11.51;52.54
7376;BME280;3728;42.266;24.944;2023-03-16T14:08:01;99071.72;;;11.39;52.77
7376;BME280;3728;42.266;24.944;2023-03-16T14:10:33;99063.81;;;11.10;53.89
7376;BME280;3728;42.266;24.944;2023-03-16T14:16:15;99076.53;;;10.82;54.60
7376;BME280;3728;42.266;24.944;2023-03-16T14:18:47;99068.91;;;11.15;54.20
7376;BME280;3728;42.266;24.944;2023-03-16T14:21:28;99076.38;;;10.79;54.93
7376;BME280;3728;42.266;24.944;2023-03-16T14:26:41;99078.28;;;10.61;55.55
7376;BME280;3728;42.266;24.944;2023-03-16T14:29:29;99083.50;;;10.61;55.95
7376;BME280;3728;42.266;24.944;2023-03-16T14:31:58;99089.69;;;10.57;55.87
7376;BME280;3728;42.266;24.944;2023-03-16T14:37:11;99090.91;;;10.34;56.65
7376;BME280;3728;42.266;24.944;2023-03-16T14:39:41;99087.81;;;10.49;56.65
7376;BME280;3728;42.266;24.944;2023-03-16T14:42:26;99094.91;;;10.48;56.43
7376;BME280;3728;42.266;24.944;2023-03-16T14:44:57;99091.53;;;10.30;57.00
7376;BME280;3728;42.266;24.944;2023-03-16T14:47:28;99092.91;;;10.19;58.42
7376;BME280;3728;42.266;24.944;2023-03-16T14:50:05;99101.53;;;10.28;58.10
7376;BME280;3728;42.266;24.944;2023-03-16T14:52:35;99101.69;;;10.15;57.63
7376;BME280;3728;42.266;24.944;2023-03-16T14:55:11;99103.84;;;10.21;57.54
7376;BME280;3728;42.266;24.944;2023-03-16T14:57:42;99100.38;;;9.87;58.69
7376;BME280;3728;42.266;24.944;2023-03-16T15:00:13;99106.25;;;10.01;58.43
7376;BME280;3728;42.266;24.944;2023-03-16T15:02:53;99112.81;;;9.81;59.38
7376;BME280;3728;42.266;24.944;2023-03-16T15:05:41;99121.44;;;9.90;59.10
7376;BME280;3728;42.266;24.944;2023-03-16T15:08:15;99123.91;;;9.87;59.90
7376;BME280;3728;42.266;24.944;2023-03-16T15:11:02;99133.13;;;9.84;59.74